createdAt,value
2018-04-02T00:02:07.074Z,35.93
2018-04-02T00:04:40.987Z,27.43
2018-04-02T00:07:22.493Z,35.90
2018-04-02T00:09:59.663Z,31.73
2018-04-02T00:12:33.275Z,30.90
2018-04-02T00:15:05.811Z,30.00
2018-04-02T00:17:38.320Z,35.07
2018-04-02T00:20:14.897Z,31.53
2018-04-02T00:22:52.837Z,32.37
2018-04-02T00:25:27.930Z,33.37
2018-04-02T00:28:00.899Z,29.70
2018-04-02T00:30:33.408Z,36.73
2018-04-02T00:33:05.952Z,34.57
2018-04-02T00:35:39.101Z,36.90
2018-04-02T00:38:13.924Z,43.33
2018-04-02T00:40:52.004Z,40.97
2018-04-02T00:43:32.368Z,44.10
2018-04-02T00:46:05.325Z,45.07
2018-04-02T00:48:37.994Z,37.47
2018-04-02T00:51:22.297Z,40.23
2018-04-02T00:54:00.149Z,40.23
2018-04-02T00:56:32.714Z,41.23
2018-04-02T00:59:05.258Z,36.77
2018-04-02T01:01:37.750Z,34.00
2018-04-02T01:04:13.867Z,37.33
2018-04-02T01:06:49.434Z,44.57
2018-04-02T01:09:24.072Z,43.53
2018-04-02T01:11:59.361Z,39.40
2018-04-02T01:14:32.319Z,45.83
2018-04-02T01:17:04.799Z,39.27
2018-04-02T01:19:37.303Z,40.73
2018-04-02T01:22:10.524Z,45.47
2018-04-02T01:24:44.761Z,39.97
2018-04-02T01:27:20.601Z,42.07
2018-04-02T01:29:59.405Z,39.57
2018-04-02T01:32:32.001Z,41.50
2018-04-02T01:35:04.529Z,40.30
2018-04-02T01:37:37.030Z,37.33
2018-04-02T01:40:14.412Z,39.40
2018-04-02T01:42:53.580Z,36.27
2018-04-02T01:45:29.335Z,40.53
2018-04-02T01:48:02.268Z,39.97
2018-04-02T01:50:35.043Z,36.00
2018-04-02T01:53:07.526Z,37.77
2018-04-02T01:55:49.601Z,43.73
2018-04-02T01:58:23.903Z,40.53
2018-04-02T02:00:59.876Z,39.43
2018-04-02T02:03:32.390Z,36.53
2018-04-02T02:06:05.706Z,32.90
2018-04-02T02:08:38.431Z,39.30
2018-04-02T02:11:15.376Z,41.03
2018-04-02T02:13:54.526Z,39.90
2018-04-02T02:16:28.404Z,41.07
2018-04-02T02:19:00.966Z,41.13
2018-04-02T02:21:33.505Z,38.70
2018-04-02T02:24:06.134Z,40.23
2018-04-02T02:26:39.718Z,37.53
2018-04-02T02:29:15.490Z,40.03
2018-04-02T02:31:57.752Z,45.73
2018-04-02T02:34:31.512Z,34.17
2018-04-02T02:37:04.042Z,39.27
2018-04-02T02:39:36.548Z,36.70
2018-04-02T02:42:13.921Z,37.53
2018-04-02T02:44:48.281Z,40.83
2018-04-02T02:47:22.832Z,34.87
2018-04-02T02:49:58.823Z,39.63
2018-04-02T02:52:31.472Z,35.90
2018-04-02T02:55:04.004Z,40.50
2018-04-02T02:57:36.497Z,35.87
2018-04-02T03:00:09.773Z,33.57
2018-04-02T03:02:49.079Z,44.03
2018-04-02T03:05:26.831Z,33.27
2018-04-02T03:08:01.126Z,42.00
2018-04-02T03:10:33.834Z,40.33
2018-04-02T03:13:06.371Z,39.10
2018-04-02T03:15:39.125Z,30.60
2018-04-02T03:18:25.568Z,47.00
2018-04-02T03:20:59.289Z,47.63
2018-04-02T03:23:32.339Z,31.17
2018-04-02T03:26:05.279Z,37.63
2018-04-02T03:28:40.063Z,29.70
2018-04-02T03:31:29.261Z,38.13
2018-04-02T03:34:02.654Z,31.07
2018-04-02T03:36:35.262Z,34.70
2018-04-02T03:39:08.412Z,33.50
2018-04-02T03:41:46.600Z,47.30
2018-04-02T03:44:22.080Z,33.33
2018-04-02T03:46:59.296Z,31.67
2018-04-02T03:49:31.878Z,29.93
2018-04-02T03:52:04.452Z,43.07
2018-04-02T03:54:36.963Z,39.63
2018-04-02T03:57:12.999Z,32.00
2018-04-02T03:59:48.056Z,34.10
2018-04-02T04:02:24.085Z,34.47
2018-04-02T04:04:58.926Z,38.70
2018-04-02T04:07:31.763Z,41.30
2018-04-02T04:10:05.509Z,48.20
2018-04-02T04:12:38.020Z,38.57
2018-04-02T04:15:13.516Z,32.07
2018-04-02T04:17:57.038Z,38.93
2018-04-02T04:20:30.955Z,36.73
2018-04-02T04:23:03.548Z,35.50
2018-04-02T04:25:36.118Z,40.60
2018-04-02T04:28:08.797Z,44.87
2018-04-02T04:31:00.547Z,52.63
2018-04-02T04:33:33.170Z,40.47
2018-04-02T04:36:05.667Z,36.27
2018-04-02T04:38:38.154Z,36.10
2018-04-02T04:41:16.738Z,49.60
2018-04-02T04:43:52.059Z,36.33
2018-04-02T04:46:26.479Z,44.07
2018-04-02T04:48:59.638Z,39.63
2018-04-02T04:51:32.594Z,31.80
2018-04-02T04:54:05.043Z,44.33
2018-04-02T04:56:43.943Z,35.73
2018-04-02T04:59:25.973Z,43.93
2018-04-02T05:02:00.038Z,50.10
2018-04-02T05:04:32.634Z,43.47
2018-04-02T05:07:05.139Z,40.90
2018-04-02T05:09:37.622Z,40.87
2018-04-02T05:12:10.594Z,33.77
2018-04-02T05:14:45.534Z,34.57
2018-04-02T05:17:20.328Z,34.13
2018-04-02T05:19:53.716Z,36.20
2018-04-02T05:22:27.115Z,33.23
2018-04-02T05:24:59.838Z,31.03
2018-04-02T05:27:32.385Z,28.53
2018-04-02T05:30:04.861Z,37.20
2018-04-02T05:32:37.714Z,30.90
2018-04-02T05:35:11.437Z,35.57
2018-04-02T05:37:47.092Z,33.13
2018-04-02T05:40:23.595Z,33.27
2018-04-02T05:42:56.971Z,37.27
2018-04-02T05:45:30.690Z,28.53
2018-04-02T05:48:03.243Z,31.60
2018-04-02T05:50:35.737Z,32.83
2018-04-02T05:53:08.219Z,31.67
2018-04-02T05:55:43.783Z,28.07
2018-04-02T05:58:23.878Z,30.87
2018-04-02T06:00:57.243Z,30.37
2018-04-02T06:03:29.858Z,35.43
2018-04-02T06:06:02.379Z,32.13
2018-04-02T06:08:34.866Z,30.30
2018-04-02T06:11:07.366Z,32.33
2018-04-02T06:13:42.292Z,32.30
2018-04-02T06:16:22.170Z,27.30
2018-04-02T06:18:55.494Z,26.97
2018-04-02T06:21:30.026Z,26.57
2018-04-02T06:24:02.650Z,22.53
2018-04-02T06:26:42.407Z,24.63
2018-04-02T06:29:21.296Z,26.83
2018-04-02T06:31:55.257Z,31.10
2018-04-02T06:34:29.177Z,26.27
2018-04-02T06:37:01.893Z,25.90
2018-04-02T06:39:34.334Z,26.03
2018-04-02T06:42:06.836Z,29.27
2018-04-02T06:44:40.401Z,27.37
2018-04-02T06:47:16.768Z,28.73
2018-04-02T06:49:51.780Z,22.40
2018-04-02T06:52:25.720Z,28.07
2018-04-02T06:54:59.728Z,22.80
2018-04-02T06:57:32.255Z,30.43
2018-04-02T07:00:04.758Z,23.87
2018-04-02T07:02:37.262Z,27.30
2018-04-02T07:05:11.082Z,30.73
2018-04-02T07:07:49.472Z,28.17
2018-04-02T07:10:28.014Z,26.70
2018-04-02T07:13:01.008Z,26.77
2018-04-02T07:15:33.494Z,23.03
2018-04-02T07:18:06.012Z,22.57
2018-04-02T07:20:38.494Z,24.00
2018-04-02T07:23:14.146Z,23.83
2018-04-02T07:25:49.504Z,22.80
2018-04-02T07:28:23.564Z,26.57
2018-04-02T07:31:00.713Z,23.10
2018-04-02T07:33:33.343Z,25.30
2018-04-02T07:36:13.494Z,21.33
2018-04-02T07:38:48.147Z,23.57
2018-04-02T07:41:21.857Z,23.20
2018-04-02T07:44:00.611Z,16.63
2018-04-02T07:46:37.990Z,15.90
2018-04-02T07:49:21.442Z,15.47
2018-04-02T07:51:56.266Z,15.43
2018-04-02T07:54:30.520Z,25.17
2018-04-02T07:57:03.304Z,13.77
2018-04-02T07:59:36.605Z,17.13
2018-04-02T08:02:10.811Z,15.43
2018-04-02T08:04:51.545Z,14.07
2018-04-02T08:07:29.688Z,16.07
2018-04-02T08:10:02.289Z,13.17
2018-04-02T08:12:34.843Z,10.87
2018-04-02T08:15:07.354Z,11.10
2018-04-02T08:17:41.333Z,8.37
2018-04-02T08:20:16.905Z,9.10
2018-04-02T08:22:53.975Z,8.17
2018-04-02T08:25:27.762Z,9.13
2018-04-02T08:28:00.731Z,7.13
2018-04-02T08:30:33.503Z,10.77
2018-04-02T08:33:06.343Z,8.37
2018-04-02T08:35:39.016Z,8.27
2018-04-02T08:38:15.897Z,6.20
2018-04-02T08:40:59.895Z,6.33
2018-04-02T08:43:32.402Z,5.80
2018-04-02T08:46:04.874Z,7.37
2018-04-02T10:10:40.312Z,5.93
2018-04-02T10:13:19.242Z,5.93
2018-04-02T10:16:00.260Z,5.93
2018-04-02T10:18:32.820Z,5.40
2018-04-02T10:21:05.303Z,4.93
2018-04-02T10:23:37.803Z,4.77
2018-04-02T10:26:11.739Z,5.03
2018-04-02T10:28:47.078Z,5.37
2018-04-02T10:31:27.752Z,4.70
2018-04-02T10:34:00.810Z,5.67
2018-04-02T10:36:33.289Z,4.60
2018-04-02T10:39:05.787Z,6.20
2018-04-02T10:41:38.319Z,5.80
2018-04-02T10:44:16.919Z,4.93
2018-04-02T10:46:56.786Z,5.13
2018-04-02T10:49:30.602Z,6.73
2018-04-02T10:52:03.189Z,5.80
2018-04-02T10:54:35.671Z,5.97
2018-04-02T10:57:08.166Z,6.07
2018-04-02T10:59:46.384Z,5.70
2018-04-02T11:02:19.403Z,6.07
2018-04-02T11:04:52.200Z,6.83
2018-04-02T11:07:24.735Z,5.87
2018-04-02T11:09:58.618Z,6.33
2018-04-02T11:12:31.181Z,6.73
2018-04-02T11:15:03.622Z,6.73
2018-04-02T11:17:36.118Z,8.47
2018-04-02T11:20:08.597Z,7.50
2018-04-02T11:22:42.350Z,6.73
2018-04-02T11:25:15.018Z,7.20
2018-04-02T11:27:47.557Z,7.13
2018-04-02T11:30:20.068Z,7.57
2018-04-02T11:32:52.567Z,7.30
2018-04-02T11:35:25.039Z,6.70
2018-04-02T11:37:57.557Z,7.93
2018-04-02T11:40:30.040Z,6.93
2018-04-02T11:43:02.539Z,8.50
2018-04-02T11:45:35.013Z,7.40
2018-04-02T11:48:07.532Z,7.40
2018-04-02T11:50:40.040Z,6.62
2018-04-02T11:53:12.589Z,7.47
2018-04-02T11:55:45.106Z,8.82
2018-04-02T11:58:17.608Z,7.60
2018-04-02T12:00:50.089Z,7.55
2018-04-02T12:03:22.586Z,7.82
2018-04-02T12:05:55.062Z,7.12
2018-04-02T12:08:27.568Z,6.82
2018-04-02T12:11:00.046Z,7.15
2018-04-02T12:13:32.543Z,7.85
2018-04-02T12:16:05.020Z,7.78
2018-04-02T12:18:37.515Z,7.05
2018-04-02T12:21:10.467Z,7.62
2018-04-02T12:23:43.002Z,7.90
2018-04-02T12:26:15.476Z,7.50
2018-04-02T12:28:47.978Z,8.23
2018-04-02T12:31:20.464Z,8.52
2018-04-02T12:33:52.965Z,7.50
2018-04-02T12:36:25.462Z,7.75
2018-04-02T12:38:57.954Z,7.95
2018-04-02T12:41:30.426Z,8.90
2018-04-02T12:44:02.932Z,8.63
2018-04-02T12:46:35.414Z,8.52
2018-04-02T12:49:07.915Z,9.70
2018-04-02T12:51:40.444Z,9.43
2018-04-02T12:54:12.960Z,10.02
2018-04-02T12:56:45.447Z,11.20
2018-04-02T12:59:17.981Z,10.82
2018-04-02T13:01:50.484Z,11.20
2018-04-02T13:04:22.984Z,10.93
2018-04-02T13:06:55.462Z,11.55
2018-04-02T13:09:27.962Z,10.93
2018-04-02T13:12:00.448Z,11.35
2018-04-02T13:14:32.955Z,14.05
2018-04-02T13:17:05.441Z,11.80
2018-04-02T13:19:37.944Z,13.00
2018-04-02T13:22:11.190Z,13.05
2018-04-02T13:24:43.776Z,14.25
2018-04-02T13:27:16.233Z,12.98
2018-04-02T13:29:48.782Z,13.68
2018-04-02T13:32:21.270Z,13.27
2018-04-02T13:34:53.774Z,13.43
2018-04-02T13:37:26.260Z,13.15
2018-04-02T13:39:58.774Z,14.75
2018-04-02T13:42:31.258Z,13.23
2018-04-02T13:45:03.762Z,16.05
2018-04-02T13:47:36.247Z,14.02
2018-04-02T13:50:08.759Z,15.50
2018-04-02T13:52:41.270Z,15.95
2018-04-02T13:55:13.783Z,16.55
2018-04-02T13:57:46.312Z,16.67
2018-04-02T14:00:18.810Z,16.70
2018-04-02T14:02:51.295Z,18.25
2018-04-02T14:05:23.801Z,18.15
2018-04-02T14:07:56.303Z,16.67
2018-04-02T14:10:28.803Z,19.12
2018-04-02T14:13:01.303Z,18.50
2018-04-02T14:15:33.797Z,19.00
2018-04-02T14:18:06.307Z,19.73
2018-04-02T14:20:40.006Z,19.67
2018-04-02T14:23:12.524Z,19.60
2018-04-02T14:25:45.028Z,20.45
2018-04-02T14:28:17.532Z,20.50
2018-04-02T14:30:50.012Z,20.52
2018-04-02T14:33:22.519Z,20.52
2018-04-02T14:35:55.003Z,21.95
2018-04-02T14:38:27.515Z,23.38
2018-04-02T14:41:00.000Z,21.92
2018-04-02T14:43:32.506Z,25.27
2018-04-02T14:46:04.990Z,24.80
2018-04-02T14:48:37.502Z,25.37
2018-04-02T14:51:10.023Z,26.58
2018-04-02T14:53:42.563Z,25.50
2018-04-02T14:56:15.066Z,24.58
2018-04-02T14:58:47.589Z,27.58
2018-04-02T15:01:20.092Z,27.98
2018-04-02T15:03:52.587Z,28.55
2018-04-02T15:06:25.063Z,29.48
2018-04-02T15:08:57.563Z,30.12
2018-04-02T15:11:30.048Z,29.92
2018-04-02T15:14:02.551Z,30.73
2018-04-02T15:16:35.032Z,29.75
2018-04-02T15:19:07.530Z,28.62
2018-04-02T15:21:41.114Z,28.85
2018-04-02T15:24:13.626Z,31.37
2018-04-02T15:26:46.109Z,30.80
2018-04-02T15:29:18.663Z,31.37
2018-04-02T15:31:51.151Z,32.10
2018-04-02T15:34:23.655Z,32.45
2018-04-02T15:36:56.151Z,31.83
2018-04-02T15:39:28.655Z,31.85
2018-04-02T15:42:01.129Z,31.58
2018-04-02T15:44:33.635Z,35.53
2018-04-02T15:47:06.125Z,32.13
2018-04-02T15:49:38.631Z,33.47
2018-04-02T15:52:11.970Z,35.03
2018-04-02T15:54:44.477Z,34.40
2018-04-02T15:57:16.956Z,36.50
2018-04-02T15:59:49.515Z,35.78
2018-04-02T16:02:21.961Z,37.58
2018-04-02T16:04:54.470Z,35.38
2018-04-02T16:07:26.953Z,39.17
2018-04-02T16:09:59.450Z,36.65
2018-04-02T16:12:31.930Z,35.95
2018-04-02T16:15:04.443Z,37.83
2018-04-02T16:17:36.928Z,39.97
2018-04-02T16:20:09.466Z,37.38
2018-04-02T16:22:41.967Z,37.47
2018-04-02T16:25:14.469Z,37.87
2018-04-02T16:27:47.085Z,37.50
2018-04-02T16:30:19.614Z,35.67
2018-04-02T16:32:52.093Z,36.85
2018-04-02T16:35:24.602Z,38.87
2018-04-02T16:37:57.078Z,36.50
2018-04-02T16:40:29.602Z,37.50
2018-04-02T16:43:02.091Z,35.80
2018-04-02T16:45:34.593Z,36.37
2018-04-02T16:48:07.067Z,38.93
2018-04-02T16:50:39.796Z,38.10
2018-04-02T16:53:12.308Z,40.50
2018-04-02T16:55:44.823Z,37.97
2018-04-02T16:58:17.310Z,37.33
2018-04-02T17:00:49.814Z,35.80
2018-04-02T17:03:22.298Z,36.67
2018-04-02T17:05:54.794Z,37.97
2018-04-02T17:08:27.294Z,36.20
2018-04-02T17:10:59.794Z,35.77
2018-04-02T17:13:32.908Z,35.20
2018-04-02T17:16:05.416Z,37.17
2018-04-02T17:18:37.890Z,37.93
2018-04-02T17:21:10.399Z,35.17
2018-04-02T17:23:42.960Z,36.30
2018-04-02T17:26:15.471Z,37.77
2018-04-02T17:28:47.974Z,38.30
2018-04-02T17:31:20.475Z,38.10
2018-04-02T17:33:52.964Z,40.60
2018-04-02T17:36:25.481Z,36.87
2018-04-02T17:38:57.966Z,41.57
2018-04-02T17:41:30.471Z,51.20
2018-04-02T17:44:02.964Z,44.00
2018-04-02T17:46:35.466Z,40.37
2018-04-02T17:49:07.945Z,38.07
2018-04-02T17:51:41.358Z,38.77
2018-04-02T17:54:14.811Z,38.43
2018-04-02T17:56:47.533Z,34.93
2018-04-02T17:59:20.043Z,36.70
2018-04-02T18:01:52.538Z,36.20
2018-04-02T18:04:25.083Z,36.03
2018-04-02T18:06:57.902Z,37.03
2018-04-02T18:09:30.378Z,37.23
2018-04-02T18:12:02.877Z,35.27
2018-04-02T18:14:35.889Z,37.33
2018-04-02T18:17:08.433Z,38.30
2018-04-02T18:19:41.932Z,35.50
2018-04-02T18:22:14.450Z,36.50
2018-04-02T18:24:46.970Z,35.63
2018-04-02T18:27:19.527Z,41.50
2018-04-02T18:29:52.133Z,38.97
2018-04-02T18:32:24.618Z,36.90
2018-04-02T18:34:57.111Z,37.33
2018-04-02T18:37:29.584Z,38.20
2018-04-02T18:40:02.082Z,36.70
2018-04-02T18:42:34.567Z,38.97
2018-04-02T18:45:07.102Z,38.77
2018-04-02T18:47:39.716Z,41.30
2018-04-02T18:50:12.875Z,37.93
2018-04-02T18:52:46.391Z,46.27
2018-04-02T18:55:19.363Z,39.93
2018-04-02T18:57:52.570Z,41.33
2018-04-02T19:00:25.100Z,41.20
2018-04-02T19:02:57.577Z,40.33
2018-04-02T19:05:30.074Z,39.97
2018-04-02T19:08:02.562Z,42.37
2018-04-02T19:10:35.065Z,40.80
2018-04-02T19:13:07.538Z,40.20
2018-04-02T19:15:40.752Z,41.53
2018-04-02T19:18:14.042Z,40.03
2018-04-02T19:20:46.603Z,41.97
2018-04-02T19:23:19.469Z,42.33
2018-04-02T19:25:52.170Z,41.30
2018-04-02T19:28:24.723Z,39.90
2018-04-02T19:30:57.255Z,40.50
2018-04-02T19:33:29.762Z,40.67
2018-04-02T19:36:02.271Z,42.80
2018-04-02T19:38:34.774Z,41.73
2018-04-02T19:41:07.284Z,39.97
2018-04-02T19:43:40.562Z,42.97
2018-04-02T19:46:17.893Z,44.90
2018-04-02T19:48:50.558Z,43.43
2018-04-02T19:51:23.431Z,43.80
2018-04-02T19:53:55.944Z,42.00
2018-04-02T19:56:28.447Z,45.97
2018-04-02T19:59:00.940Z,38.93
2018-04-02T20:01:33.438Z,43.57
2018-04-02T20:04:05.918Z,42.27
2018-04-02T20:06:38.448Z,42.30
2018-04-02T20:09:16.283Z,42.50
2018-04-02T20:11:49.595Z,43.13
2018-04-02T20:14:22.259Z,40.60
2018-04-02T20:16:54.754Z,40.60
2018-04-02T20:19:28.329Z,41.73
2018-04-02T20:22:00.878Z,41.13
2018-04-02T20:24:33.358Z,41.77
2018-04-02T20:27:05.869Z,41.43
2018-04-02T20:29:38.348Z,40.77
2018-04-02T20:32:11.628Z,41.77
2018-04-02T20:34:49.284Z,39.53
2018-04-02T20:37:23.128Z,40.70
2018-04-02T20:39:57.827Z,37.63
2018-04-02T20:42:30.325Z,38.33
2018-04-02T20:45:02.811Z,41.30
2018-04-02T20:47:35.311Z,37.07
2018-04-02T20:50:07.788Z,37.03
2018-04-02T20:52:40.328Z,39.53
2018-04-02T20:55:18.655Z,37.20
2018-04-02T20:57:53.252Z,37.97
2018-04-02T21:00:26.563Z,38.50
2018-04-02T21:02:59.297Z,41.70
2018-04-02T21:05:31.823Z,39.47
2018-04-02T21:08:04.333Z,37.97
2018-04-02T21:10:36.819Z,38.23
2018-04-02T21:13:09.417Z,39.50
2018-04-02T21:15:45.837Z,38.53
2018-04-02T21:18:19.857Z,37.73
2018-04-02T21:20:52.451Z,35.57
2018-04-02T21:23:24.954Z,35.83
2018-04-02T21:25:57.434Z,35.37
2018-04-02T21:28:29.960Z,35.87
2018-04-02T21:31:02.432Z,36.83
2018-04-02T21:33:34.939Z,35.80
2018-04-02T21:36:07.426Z,34.47
2018-04-02T21:38:41.398Z,35.37
2018-04-02T21:41:15.681Z,34.93
2018-04-02T21:43:54.122Z,36.30
2018-04-02T21:46:27.403Z,36.67
2018-04-02T21:49:00.333Z,35.13
2018-04-02T21:51:32.896Z,34.13
2018-04-02T21:54:05.346Z,34.23
2018-04-02T21:56:37.843Z,34.30
2018-04-02T21:59:16.277Z,33.53
2018-04-02T22:01:52.017Z,34.33
2018-04-02T22:04:26.168Z,33.63
2018-04-02T22:07:09.999Z,34.37
2018-04-02T22:09:50.077Z,35.57
2018-04-02T22:12:23.073Z,33.90
2018-04-02T22:14:59.759Z,31.73
2018-04-02T22:17:32.279Z,30.03
2018-04-02T22:20:04.770Z,32.47
2018-04-02T22:22:37.266Z,31.97
2018-04-02T22:25:10.006Z,33.33
2018-04-02T22:27:50.546Z,33.30
2018-04-02T22:33:02.868Z,31.17
2018-04-02T22:35:35.346Z,30.50
2018-04-02T22:38:07.842Z,28.07
2018-04-02T22:40:40.947Z,29.00
2018-04-02T22:43:14.246Z,28.57
2018-04-02T22:45:47.595Z,30.50
2018-04-02T22:48:20.661Z,29.80
2018-04-02T22:50:53.270Z,28.40
2018-04-02T22:53:25.780Z,30.07
2018-04-02T22:55:58.287Z,27.87
2018-04-02T22:58:30.863Z,31.00
2018-04-02T23:01:03.360Z,29.00
2018-04-02T23:03:35.870Z,30.37
2018-04-02T23:06:08.369Z,27.80
2018-04-02T23:08:41.675Z,30.40
2018-04-02T23:11:20.100Z,27.80
2018-04-02T23:13:54.599Z,27.03
2018-04-02T23:16:27.216Z,26.83
2018-04-02T23:18:59.725Z,28.67
2018-04-02T23:21:32.215Z,26.77
2018-04-02T23:24:04.715Z,27.23
2018-04-02T23:26:37.206Z,27.77
2018-04-02T23:29:10.643Z,24.93
2018-04-02T23:31:45.833Z,27.37
2018-04-02T23:34:19.725Z,26.60
2018-04-02T23:36:53.120Z,26.73
2018-04-02T23:39:27.483Z,26.80
2018-04-02T23:42:00.016Z,27.17
2018-04-02T23:44:32.526Z,26.23
2018-04-02T23:47:05.015Z,26.17
2018-04-02T23:49:37.518Z,25.70
2018-04-02T23:52:10.408Z,25.63
2018-04-02T23:54:44.165Z,28.00
2018-04-02T23:57:20.806Z,29.40
2018-04-02T23:59:53.765Z,27.03
